sensor_id;sensor_type;location;lat;lon;timestamp;P1;durP1;ratioP1;P2;durP2;ratioP2
51943;SDS011;37969;53.132;6.370;2022-12-11T00:00:57;109.05;;;29.17;;
51943;SDS011;37969;53.132;6.370;2022-12-11T00:03:23;111.07;;;29.90;;
51943;SDS011;37969;53.132;6.370;2022-12-11T00:05:50;112.90;;;29.95;;
51943;SDS011;37969;53.132;6.370;2022-12-11T00:08:16;105.95;;;29.40;;
51943;SDS011;37969;53.132;6.370;2022-12-11T00:10:47;115.82;;;30.13;;
51943;SDS011;37969;53.132;6.370;2022-12-11T00:13:13;133.15;;;30.80;;
51943;SDS011;37969;53.132;6.370;2022-12-11T00:15:40;139.85;;;31.38;;
51943;SDS011;37969;53.132;6.370;2022-12-11T00:18:06;147.68;;;34.10;;
51943;SDS011;37969;53.132;6.370;2022-12-11T00:20:33;165.50;;;33.85;;
51943;SDS011;37969;53.132;6.370;2022-12-11T00:22:59;145.35;;;31.67;;
51943;SDS011;37969;53.132;6.370;2022-12-11T00:25:26;118.55;;;31.63;;
51943;SDS011;37969;53.132;6.370;2022-12-11T00:27:52;134.48;;;32.85;;
51943;SDS011;37969;53.132;6.370;2022-12-11T00:30:18;128.07;;;32.67;;
51943;SDS011;37969;53.132;6.370;2022-12-11T00:32:44;128.65;;;32.97;;
51943;SDS011;37969;53.132;6.370;2022-12-11T00:35:11;137.90;;;33.38;;
51943;SDS011;37969;53.132;6.370;2022-12-11T00:37:37;140.18;;;34.05;;
51943;SDS011;37969;53.132;6.370;2022-12-11T00:40:03;143.15;;;35.83;;
51943;SDS011;37969;53.132;6.370;2022-12-11T00:42:29;119.28;;;30.98;;
51943;SDS011;37969;53.132;6.370;2022-12-11T00:44:56;136.43;;;33.97;;
51943;SDS011;37969;53.132;6.370;2022-12-11T00:47:22;116.63;;;30.30;;
51943;SDS011;37969;53.132;6.370;2022-12-11T00:49:48;111.30;;;29.38;;
51943;SDS011;37969;53.132;6.370;2022-12-11T00:52:14;114.43;;;30.67;;
51943;SDS011;37969;53.132;6.370;2022-12-11T00:54:42;110.78;;;30.58;;
51943;SDS011;37969;53.132;6.370;2022-12-11T00:57:08;112.72;;;30.05;;
51943;SDS011;37969;53.132;6.370;2022-12-11T00:59:34;125.45;;;31.40;;
51943;SDS011;37969;53.132;6.370;2022-12-11T01:02:00;125.88;;;33.63;;
51943;SDS011;37969;53.132;6.370;2022-12-11T01:04:26;142.50;;;34.03;;
51943;SDS011;37969;53.132;6.370;2022-12-11T01:06:52;140.02;;;35.22;;
51943;SDS011;37969;53.132;6.370;2022-12-11T01:09:19;137.95;;;34.63;;
51943;SDS011;37969;53.132;6.370;2022-12-11T01:12:03;135.18;;;34.03;;
51943;SDS011;37969;53.132;6.370;2022-12-11T01:14:29;156.35;;;35.88;;
51943;SDS011;37969;53.132;6.370;2022-12-11T01:16:55;159.75;;;35.95;;
51943;SDS011;37969;53.132;6.370;2022-12-11T01:19:22;140.45;;;35.05;;
51943;SDS011;37969;53.132;6.370;2022-12-11T01:21:48;135.63;;;35.95;;
51943;SDS011;37969;53.132;6.370;2022-12-11T01:24:14;130.38;;;35.15;;
51943;SDS011;37969;53.132;6.370;2022-12-11T01:26:40;128.45;;;34.40;;
51943;SDS011;37969;53.132;6.370;2022-12-11T01:29:06;145.50;;;37.72;;
51943;SDS011;37969;53.132;6.370;2022-12-11T01:31:32;167.60;;;36.97;;
51943;SDS011;37969;53.132;6.370;2022-12-11T01:33:59;148.75;;;36.38;;
51943;SDS011;37969;53.132;6.370;2022-12-11T01:36:25;152.75;;;36.72;;
51943;SDS011;37969;53.132;6.370;2022-12-11T01:38:51;152.85;;;36.55;;
51943;SDS011;37969;53.132;6.370;2022-12-11T01:41:18;153.65;;;35.78;;
51943;SDS011;37969;53.132;6.370;2022-12-11T01:43:55;184.82;;;38.92;;
51943;SDS011;37969;53.132;6.370;2022-12-11T01:46:21;138.98;;;36.50;;
51943;SDS011;37969;53.132;6.370;2022-12-11T01:48:48;179.60;;;39.45;;
51943;SDS011;37969;53.132;6.370;2022-12-11T01:51:14;133.07;;;35.25;;
51943;SDS011;37969;53.132;6.370;2022-12-11T01:53:42;173.30;;;36.33;;
51943;SDS011;37969;53.132;6.370;2022-12-11T01:56:10;141.60;;;34.78;;
51943;SDS011;37969;53.132;6.370;2022-12-11T01:58:39;180.02;;;37.00;;
51943;SDS011;37969;53.132;6.370;2022-12-11T02:01:07;152.63;;;35.17;;
51943;SDS011;37969;53.132;6.370;2022-12-11T02:03:34;161.25;;;34.22;;
51943;SDS011;37969;53.132;6.370;2022-12-11T02:06:00;143.43;;;35.58;;
51943;SDS011;37969;53.132;6.370;2022-12-11T02:08:27;156.43;;;35.80;;
51943;SDS011;37969;53.132;6.370;2022-12-11T02:13:27;179.63;;;37.53;;
51943;SDS011;37969;53.132;6.370;2022-12-11T02:15:58;149.15;;;36.20;;
51943;SDS011;37969;53.132;6.370;2022-12-11T02:20:57;149.63;;;37.05;;
51943;SDS011;37969;53.132;6.370;2022-12-11T02:23:31;145.63;;;33.38;;
51943;SDS011;37969;53.132;6.370;2022-12-11T02:28:42;148.13;;;33.70;;
51943;SDS011;37969;53.132;6.370;2022-12-11T02:33:40;134.65;;;33.53;;
51943;SDS011;37969;53.132;6.370;2022-12-11T02:36:09;130.63;;;33.95;;
51943;SDS011;37969;53.132;6.370;2022-12-11T02:38:36;168.15;;;35.17;;
51943;SDS011;37969;53.132;6.370;2022-12-11T02:41:03;137.95;;;33.67;;
51943;SDS011;37969;53.132;6.370;2022-12-11T02:43:30;131.60;;;32.60;;
51943;SDS011;37969;53.132;6.370;2022-12-11T02:45:58;165.23;;;34.80;;
51943;SDS011;37969;53.132;6.370;2022-12-11T02:48:25;146.05;;;33.97;;
51943;SDS011;37969;53.132;6.370;2022-12-11T02:50:52;148.98;;;34.70;;
51943;SDS011;37969;53.132;6.370;2022-12-11T02:53:22;147.85;;;33.47;;
51943;SDS011;37969;53.132;6.370;2022-12-11T02:55:51;132.47;;;32.10;;
51943;SDS011;37969;53.132;6.370;2022-12-11T02:58:21;144.48;;;31.92;;
51943;SDS011;37969;53.132;6.370;2022-12-11T03:00:48;150.32;;;32.88;;
51943;SDS011;37969;53.132;6.370;2022-12-11T03:03:14;142.65;;;32.38;;
51943;SDS011;37969;53.132;6.370;2022-12-11T03:05:41;145.70;;;32.70;;
51943;SDS011;37969;53.132;6.370;2022-12-11T03:08:07;144.98;;;32.05;;
51943;SDS011;37969;53.132;6.370;2022-12-11T03:10:33;148.90;;;33.85;;
51943;SDS011;37969;53.132;6.370;2022-12-11T03:13:00;156.88;;;34.22;;
51943;SDS011;37969;53.132;6.370;2022-12-11T03:15:33;148.27;;;32.38;;
51943;SDS011;37969;53.132;6.370;2022-12-11T03:18:05;142.63;;;33.08;;
51943;SDS011;37969;53.132;6.370;2022-12-11T03:20:42;188.30;;;34.92;;
51943;SDS011;37969;53.132;6.370;2022-12-11T03:23:11;164.90;;;33.65;;
51943;SDS011;37969;53.132;6.370;2022-12-11T03:25:54;180.70;;;35.92;;
51943;SDS011;37969;53.132;6.370;2022-12-11T03:30:52;133.25;;;30.98;;
51943;SDS011;37969;53.132;6.370;2022-12-11T03:33:25;130.95;;;31.55;;
51943;SDS011;37969;53.132;6.370;2022-12-11T03:35:54;135.63;;;31.83;;
51943;SDS011;37969;53.132;6.370;2022-12-11T03:38:22;164.73;;;34.72;;
51943;SDS011;37969;53.132;6.370;2022-12-11T03:40:50;150.18;;;31.08;;
51943;SDS011;37969;53.132;6.370;2022-12-11T03:43:18;112.00;;;29.50;;
51943;SDS011;37969;53.132;6.370;2022-12-11T03:45:45;119.30;;;30.35;;
51943;SDS011;37969;53.132;6.370;2022-12-11T03:48:11;132.23;;;29.27;;
51943;SDS011;37969;53.132;6.370;2022-12-11T03:50:39;122.72;;;30.70;;
51943;SDS011;37969;53.132;6.370;2022-12-11T03:53:05;119.57;;;29.75;;
51943;SDS011;37969;53.132;6.370;2022-12-11T03:55:32;128.35;;;31.13;;
51943;SDS011;37969;53.132;6.370;2022-12-11T03:57:58;118.88;;;29.20;;
51943;SDS011;37969;53.132;6.370;2022-12-11T04:00:25;137.00;;;31.58;;
51943;SDS011;37969;53.132;6.370;2022-12-11T04:02:51;122.72;;;29.23;;
51943;SDS011;37969;53.132;6.370;2022-12-11T04:05:35;114.22;;;29.92;;
51943;SDS011;37969;53.132;6.370;2022-12-11T04:08:02;113.97;;;29.20;;
51943;SDS011;37969;53.132;6.370;2022-12-11T04:10:28;119.45;;;29.27;;
51943;SDS011;37969;53.132;6.370;2022-12-11T04:12:54;110.03;;;28.83;;
51943;SDS011;37969;53.132;6.370;2022-12-11T04:15:20;106.95;;;29.10;;
51943;SDS011;37969;53.132;6.370;2022-12-11T04:17:46;109.03;;;28.65;;
51943;SDS011;37969;53.132;6.370;2022-12-11T04:20:31;95.43;;;27.27;;
51943;SDS011;37969;53.132;6.370;2022-12-11T04:23:16;94.07;;;25.67;;
51943;SDS011;37969;53.132;6.370;2022-12-11T04:26:03;100.85;;;27.30;;
51943;SDS011;37969;53.132;6.370;2022-12-11T04:28:30;109.45;;;28.42;;
51943;SDS011;37969;53.132;6.370;2022-12-11T04:30:56;131.02;;;30.67;;
51943;SDS011;37969;53.132;6.370;2022-12-11T04:33:22;110.13;;;29.77;;
51943;SDS011;37969;53.132;6.370;2022-12-11T04:35:48;125.85;;;29.92;;
51943;SDS011;37969;53.132;6.370;2022-12-11T04:38:14;129.10;;;31.48;;
51943;SDS011;37969;53.132;6.370;2022-12-11T04:40:41;114.15;;;30.45;;
51943;SDS011;37969;53.132;6.370;2022-12-11T04:43:07;111.15;;;29.08;;
51943;SDS011;37969;53.132;6.370;2022-12-11T04:45:33;117.75;;;31.13;;
51943;SDS011;37969;53.132;6.370;2022-12-11T04:47:59;107.30;;;29.65;;
51943;SDS011;37969;53.132;6.370;2022-12-11T04:50:25;124.78;;;31.75;;
51943;SDS011;37969;53.132;6.370;2022-12-11T04:52:53;110.97;;;30.23;;
51943;SDS011;37969;53.132;6.370;2022-12-11T04:55:19;113.10;;;29.55;;
51943;SDS011;37969;53.132;6.370;2022-12-11T04:57:46;90.55;;;28.70;;
51943;SDS011;37969;53.132;6.370;2022-12-11T05:00:12;108.75;;;28.73;;
51943;SDS011;37969;53.132;6.370;2022-12-11T05:02:38;124.03;;;30.27;;
51943;SDS011;37969;53.132;6.370;2022-12-11T05:05:06;110.40;;;30.33;;
51943;SDS011;37969;53.132;6.370;2022-12-11T05:07:33;107.13;;;29.63;;
51943;SDS011;37969;53.132;6.370;2022-12-11T05:10:00;113.38;;;29.95;;
51943;SDS011;37969;53.132;6.370;2022-12-11T05:12:26;113.05;;;30.52;;
51943;SDS011;37969;53.132;6.370;2022-12-11T05:14:53;102.97;;;29.58;;
51943;SDS011;37969;53.132;6.370;2022-12-11T05:17:19;101.00;;;29.00;;
51943;SDS011;37969;53.132;6.370;2022-12-11T05:19:47;98.60;;;28.27;;
51943;SDS011;37969;53.132;6.370;2022-12-11T05:22:13;105.60;;;29.42;;
51943;SDS011;37969;53.132;6.370;2022-12-11T05:24:39;112.35;;;29.70;;
51943;SDS011;37969;53.132;6.370;2022-12-11T05:27:06;117.57;;;30.55;;
51943;SDS011;37969;53.132;6.370;2022-12-11T05:29:32;119.25;;;31.17;;
51943;SDS011;37969;53.132;6.370;2022-12-11T05:31:58;102.63;;;29.60;;
51943;SDS011;37969;53.132;6.370;2022-12-11T05:34:24;105.10;;;28.95;;
51943;SDS011;37969;53.132;6.370;2022-12-11T05:36:50;108.95;;;29.65;;
51943;SDS011;37969;53.132;6.370;2022-12-11T05:39:16;109.60;;;29.70;;
51943;SDS011;37969;53.132;6.370;2022-12-11T05:41:43;108.80;;;29.17;;
51943;SDS011;37969;53.132;6.370;2022-12-11T05:44:10;104.30;;;29.02;;
51943;SDS011;37969;53.132;6.370;2022-12-11T05:46:37;128.57;;;31.33;;
51943;SDS011;37969;53.132;6.370;2022-12-11T05:49:04;118.05;;;30.10;;
51943;SDS011;37969;53.132;6.370;2022-12-11T05:51:30;137.38;;;31.88;;
51943;SDS011;37969;53.132;6.370;2022-12-11T05:53:58;108.93;;;29.08;;
51943;SDS011;37969;53.132;6.370;2022-12-11T05:56:26;126.30;;;32.08;;
51943;SDS011;37969;53.132;6.370;2022-12-11T05:58:52;114.50;;;30.50;;
51943;SDS011;37969;53.132;6.370;2022-12-11T06:01:20;113.20;;;29.17;;
51943;SDS011;37969;53.132;6.370;2022-12-11T06:03:47;104.88;;;29.77;;
51943;SDS011;37969;53.132;6.370;2022-12-11T06:06:13;136.52;;;30.98;;
51943;SDS011;37969;53.132;6.370;2022-12-11T06:08:39;124.05;;;30.48;;
51943;SDS011;37969;53.132;6.370;2022-12-11T06:11:06;121.65;;;29.83;;
51943;SDS011;37969;53.132;6.370;2022-12-11T06:13:33;107.78;;;29.17;;
51943;SDS011;37969;53.132;6.370;2022-12-11T06:16:00;114.63;;;29.35;;
51943;SDS011;37969;53.132;6.370;2022-12-11T06:18:27;124.10;;;29.73;;
51943;SDS011;37969;53.132;6.370;2022-12-11T06:20:53;85.78;;;26.35;;
51943;SDS011;37969;53.132;6.370;2022-12-11T06:23:19;96.00;;;28.13;;
51943;SDS011;37969;53.132;6.370;2022-12-11T06:25:45;106.70;;;28.40;;
51943;SDS011;37969;53.132;6.370;2022-12-11T06:28:11;126.55;;;30.02;;
51943;SDS011;37969;53.132;6.370;2022-12-11T06:30:38;133.45;;;32.92;;
51943;SDS011;37969;53.132;6.370;2022-12-11T06:33:04;114.28;;;32.38;;
51943;SDS011;37969;53.132;6.370;2022-12-11T06:35:30;131.90;;;30.65;;
51943;SDS011;37969;53.132;6.370;2022-12-11T06:37:57;112.88;;;32.38;;
51943;SDS011;37969;53.132;6.370;2022-12-11T06:40:23;113.45;;;31.13;;
51943;SDS011;37969;53.132;6.370;2022-12-11T06:42:49;111.55;;;28.90;;
51943;SDS011;37969;53.132;6.370;2022-12-11T06:45:16;109.88;;;28.35;;
51943;SDS011;37969;53.132;6.370;2022-12-11T06:47:42;130.68;;;30.73;;
51943;SDS011;37969;53.132;6.370;2022-12-11T06:50:08;122.22;;;30.20;;
51943;SDS011;37969;53.132;6.370;2022-12-11T06:52:34;113.75;;;28.85;;
51943;SDS011;37969;53.132;6.370;2022-12-11T06:55:01;122.88;;;31.73;;
51943;SDS011;37969;53.132;6.370;2022-12-11T06:57:27;110.85;;;29.27;;
51943;SDS011;37969;53.132;6.370;2022-12-11T06:59:53;120.88;;;28.90;;
51943;SDS011;37969;53.132;6.370;2022-12-11T07:02:19;143.45;;;31.77;;
51943;SDS011;37969;53.132;6.370;2022-12-11T07:04:45;132.93;;;31.30;;
51943;SDS011;37969;53.132;6.370;2022-12-11T07:07:12;126.80;;;30.13;;
51943;SDS011;37969;53.132;6.370;2022-12-11T07:09:39;123.15;;;31.33;;
51943;SDS011;37969;53.132;6.370;2022-12-11T07:12:05;125.75;;;31.00;;
51943;SDS011;37969;53.132;6.370;2022-12-11T07:14:32;133.45;;;32.03;;
51943;SDS011;37969;53.132;6.370;2022-12-11T07:16:58;111.10;;;27.77;;
51943;SDS011;37969;53.132;6.370;2022-12-11T07:19:25;137.60;;;29.70;;
51943;SDS011;37969;53.132;6.370;2022-12-11T07:21:51;104.00;;;28.42;;
51943;SDS011;37969;53.132;6.370;2022-12-11T07:24:17;113.28;;;30.05;;
51943;SDS011;37969;53.132;6.370;2022-12-11T07:26:43;133.30;;;31.30;;
51943;SDS011;37969;53.132;6.370;2022-12-11T07:29:10;119.72;;;30.27;;
51943;SDS011;37969;53.132;6.370;2022-12-11T07:31:36;135.85;;;30.52;;
51943;SDS011;37969;53.132;6.370;2022-12-11T07:34:04;139.20;;;30.77;;
51943;SDS011;37969;53.132;6.370;2022-12-11T07:36:30;145.50;;;31.42;;
51943;SDS011;37969;53.132;6.370;2022-12-11T07:38:57;120.10;;;30.63;;
51943;SDS011;37969;53.132;6.370;2022-12-11T07:41:24;132.77;;;30.92;;
51943;SDS011;37969;53.132;6.370;2022-12-11T07:43:52;152.80;;;32.58;;
51943;SDS011;37969;53.132;6.370;2022-12-11T07:46:20;129.60;;;31.15;;
51943;SDS011;37969;53.132;6.370;2022-12-11T07:48:47;144.40;;;32.33;;
51943;SDS011;37969;53.132;6.370;2022-12-11T07:51:14;130.00;;;31.23;;
51943;SDS011;37969;53.132;6.370;2022-12-11T07:53:41;128.90;;;31.05;;
51943;SDS011;37969;53.132;6.370;2022-12-11T07:56:07;147.48;;;32.75;;
51943;SDS011;37969;53.132;6.370;2022-12-11T07:58:33;126.10;;;31.48;;
51943;SDS011;37969;53.132;6.370;2022-12-11T08:01:00;133.05;;;33.75;;
51943;SDS011;37969;53.132;6.370;2022-12-11T08:03:26;136.18;;;33.08;;
51943;SDS011;37969;53.132;6.370;2022-12-11T08:05:52;132.70;;;32.28;;
51943;SDS011;37969;53.132;6.370;2022-12-11T08:08:18;135.85;;;32.08;;
51943;SDS011;37969;53.132;6.370;2022-12-11T08:10:45;120.25;;;32.08;;
51943;SDS011;37969;53.132;6.370;2022-12-11T08:13:11;131.35;;;33.15;;
51943;SDS011;37969;53.132;6.370;2022-12-11T08:15:37;133.15;;;32.83;;
51943;SDS011;37969;53.132;6.370;2022-12-11T08:18:03;155.68;;;32.65;;
51943;SDS011;37969;53.132;6.370;2022-12-11T08:20:30;158.02;;;33.58;;
51943;SDS011;37969;53.132;6.370;2022-12-11T08:22:56;148.80;;;34.17;;
51943;SDS011;37969;53.132;6.370;2022-12-11T08:25:23;126.53;;;30.48;;
51943;SDS011;37969;53.132;6.370;2022-12-11T08:27:49;159.85;;;34.47;;
51943;SDS011;37969;53.132;6.370;2022-12-11T08:30:15;158.30;;;34.88;;
51943;SDS011;37969;53.132;6.370;2022-12-11T08:32:41;156.60;;;34.92;;
51943;SDS011;37969;53.132;6.370;2022-12-11T08:35:07;144.32;;;33.00;;
51943;SDS011;37969;53.132;6.370;2022-12-11T08:37:34;142.90;;;34.55;;
51943;SDS011;37969;53.132;6.370;2022-12-11T08:40:00;157.98;;;35.08;;
51943;SDS011;37969;53.132;6.370;2022-12-11T08:42:26;159.85;;;36.08;;
51943;SDS011;37969;53.132;6.370;2022-12-11T08:44:52;160.10;;;35.28;;
51943;SDS011;37969;53.132;6.370;2022-12-11T08:47:18;184.52;;;37.15;;
51943;SDS011;37969;53.132;6.370;2022-12-11T08:49:44;152.05;;;34.88;;
51943;SDS011;37969;53.132;6.370;2022-12-11T08:52:11;175.90;;;37.03;;
51943;SDS011;37969;53.132;6.370;2022-12-11T08:54:37;166.93;;;36.53;;
51943;SDS011;37969;53.132;6.370;2022-12-11T08:57:03;172.45;;;36.03;;
51943;SDS011;37969;53.132;6.370;2022-12-11T08:59:30;161.85;;;36.35;;
51943;SDS011;37969;53.132;6.370;2022-12-11T09:01:56;146.18;;;34.55;;
51943;SDS011;37969;53.132;6.370;2022-12-11T09:04:22;143.20;;;36.72;;
51943;SDS011;37969;53.132;6.370;2022-12-11T09:06:48;142.70;;;35.17;;
51943;SDS011;37969;53.132;6.370;2022-12-11T09:09:15;160.45;;;35.42;;
51943;SDS011;37969;53.132;6.370;2022-12-11T09:11:41;167.02;;;37.15;;
51943;SDS011;37969;53.132;6.370;2022-12-11T09:14:07;173.07;;;36.72;;
51943;SDS011;37969;53.132;6.370;2022-12-11T09:16:34;132.15;;;33.88;;
51943;SDS011;37969;53.132;6.370;2022-12-11T09:19:05;168.25;;;37.65;;
51943;SDS011;37969;53.132;6.370;2022-12-11T09:21:32;160.48;;;36.28;;
51943;SDS011;37969;53.132;6.370;2022-12-11T09:23:59;143.63;;;35.40;;
51943;SDS011;37969;53.132;6.370;2022-12-11T09:26:26;156.57;;;37.35;;
51943;SDS011;37969;53.132;6.370;2022-12-11T09:28:53;144.82;;;35.40;;
51943;SDS011;37969;53.132;6.370;2022-12-11T09:31:20;171.30;;;37.42;;
51943;SDS011;37969;53.132;6.370;2022-12-11T09:33:47;149.60;;;36.97;;
51943;SDS011;37969;53.132;6.370;2022-12-11T09:36:14;121.78;;;33.92;;
51943;SDS011;37969;53.132;6.370;2022-12-11T09:38:40;155.70;;;35.83;;
51943;SDS011;37969;53.132;6.370;2022-12-11T09:44:01;129.40;;;34.22;;
51943;SDS011;37969;53.132;6.370;2022-12-11T09:46:33;156.65;;;37.17;;
51943;SDS011;37969;53.132;6.370;2022-12-11T09:49:00;150.82;;;35.25;;
51943;SDS011;37969;53.132;6.370;2022-12-11T09:51:29;143.77;;;35.72;;
51943;SDS011;37969;53.132;6.370;2022-12-11T09:53:59;147.93;;;35.00;;
51943;SDS011;37969;53.132;6.370;2022-12-11T09:56:30;185.77;;;37.90;;
51943;SDS011;37969;53.132;6.370;2022-12-11T10:04:01;161.68;;;36.97;;
51943;SDS011;37969;53.132;6.370;2022-12-11T10:06:32;143.63;;;36.15;;
51943;SDS011;37969;53.132;6.370;2022-12-11T10:09:12;153.20;;;37.00;;
51943;SDS011;37969;53.132;6.370;2022-12-11T10:11:49;159.40;;;37.22;;
51943;SDS011;37969;53.132;6.370;2022-12-11T10:17:06;138.82;;;35.90;;
51943;SDS011;37969;53.132;6.370;2022-12-11T10:19:35;128.35;;;35.50;;
51943;SDS011;37969;53.132;6.370;2022-12-11T10:22:01;135.23;;;36.28;;
51943;SDS011;37969;53.132;6.370;2022-12-11T10:24:39;137.80;;;38.30;;
51943;SDS011;37969;53.132;6.370;2022-12-11T10:27:12;149.02;;;38.75;;
51943;SDS011;37969;53.132;6.370;2022-12-11T10:29:39;136.85;;;36.30;;
51943;SDS011;37969;53.132;6.370;2022-12-11T10:32:05;161.00;;;37.80;;
51943;SDS011;37969;53.132;6.370;2022-12-11T10:34:39;132.85;;;35.38;;
51943;SDS011;37969;53.132;6.370;2022-12-11T10:37:07;169.30;;;40.03;;
51943;SDS011;37969;53.132;6.370;2022-12-11T10:39:33;135.52;;;35.78;;
51943;SDS011;37969;53.132;6.370;2022-12-11T10:41:59;130.10;;;35.30;;
51943;SDS011;37969;53.132;6.370;2022-12-11T10:44:29;134.77;;;37.95;;
51943;SDS011;37969;53.132;6.370;2022-12-11T10:47:13;154.55;;;40.95;;
51943;SDS011;37969;53.132;6.370;2022-12-11T10:49:51;129.00;;;35.78;;
51943;SDS011;37969;53.132;6.370;2022-12-11T10:52:25;139.98;;;38.53;;
51943;SDS011;37969;53.132;6.370;2022-12-11T10:54:54;128.65;;;36.33;;
51943;SDS011;37969;53.132;6.370;2022-12-11T10:57:25;148.57;;;45.28;;
51943;SDS011;37969;53.132;6.370;2022-12-11T10:59:52;152.18;;;40.33;;
51943;SDS011;37969;53.132;6.370;2022-12-11T11:04:47;141.95;;;41.70;;
51943;SDS011;37969;53.132;6.370;2022-12-11T11:07:14;126.00;;;36.45;;
51943;SDS011;37969;53.132;6.370;2022-12-11T11:09:41;139.32;;;39.00;;
51943;SDS011;37969;53.132;6.370;2022-12-11T11:12:19;121.90;;;36.13;;
51943;SDS011;37969;53.132;6.370;2022-12-11T11:14:45;145.75;;;38.22;;
51943;SDS011;37969;53.132;6.370;2022-12-11T11:17:13;130.60;;;36.47;;
51943;SDS011;37969;53.132;6.370;2022-12-11T11:19:40;123.03;;;37.42;;
51943;SDS011;37969;53.132;6.370;2022-12-11T11:22:07;152.43;;;37.17;;
51943;SDS011;37969;53.132;6.370;2022-12-11T11:24:38;123.57;;;35.53;;
51943;SDS011;37969;53.132;6.370;2022-12-11T11:27:12;123.45;;;35.65;;
51943;SDS011;37969;53.132;6.370;2022-12-11T11:29:39;122.45;;;35.95;;
51943;SDS011;37969;53.132;6.370;2022-12-11T11:32:14;110.97;;;34.70;;
51943;SDS011;37969;53.132;6.370;2022-12-11T11:34:42;116.03;;;34.20;;
51943;SDS011;37969;53.132;6.370;2022-12-11T11:37:21;117.85;;;34.47;;
51943;SDS011;37969;53.132;6.370;2022-12-11T11:39:47;118.88;;;35.85;;
51943;SDS011;37969;53.132;6.370;2022-12-11T11:42:17;117.57;;;34.47;;
51943;SDS011;37969;53.132;6.370;2022-12-11T11:44:46;117.83;;;35.33;;
51943;SDS011;37969;53.132;6.370;2022-12-11T11:47:16;114.63;;;34.22;;
51943;SDS011;37969;53.132;6.370;2022-12-11T11:49:51;112.53;;;34.03;;
51943;SDS011;37969;53.132;6.370;2022-12-11T11:54:50;111.13;;;34.53;;
51943;SDS011;37969;53.132;6.370;2022-12-11T11:57:21;118.60;;;35.63;;
51943;SDS011;37969;53.132;6.370;2022-12-11T11:59:52;115.18;;;35.40;;
51943;SDS011;37969;53.132;6.370;2022-12-11T12:02:20;100.65;;;33.20;;
51943;SDS011;37969;53.132;6.370;2022-12-11T12:04:46;107.97;;;33.42;;
51943;SDS011;37969;53.132;6.370;2022-12-11T12:09:56;110.45;;;33.00;;
51943;SDS011;37969;53.132;6.370;2022-12-11T12:14:58;109.85;;;34.22;;
51943;SDS011;37969;53.132;6.370;2022-12-11T12:19:57;91.55;;;32.00;;
51943;SDS011;37969;53.132;6.370;2022-12-11T12:25:05;97.13;;;31.73;;
51943;SDS011;37969;53.132;6.370;2022-12-11T12:27:38;94.63;;;31.15;;
51943;SDS011;37969;53.132;6.370;2022-12-11T12:30:13;109.47;;;34.88;;
51943;SDS011;37969;53.132;6.370;2022-12-11T12:32:44;109.25;;;33.47;;
51943;SDS011;37969;53.132;6.370;2022-12-11T12:35:27;105.95;;;32.85;;
51943;SDS011;37969;53.132;6.370;2022-12-11T12:37:57;107.63;;;33.42;;
51943;SDS011;37969;53.132;6.370;2022-12-11T12:45:33;99.82;;;31.70;;
51943;SDS011;37969;53.132;6.370;2022-12-11T12:48:02;104.05;;;32.70;;
51943;SDS011;37969;53.132;6.370;2022-12-11T12:50:33;101.75;;;33.55;;
51943;SDS011;37969;53.132;6.370;2022-12-11T12:53:02;103.97;;;32.97;;
51943;SDS011;37969;53.132;6.370;2022-12-11T12:55:29;98.30;;;32.08;;
51943;SDS011;37969;53.132;6.370;2022-12-11T12:57:57;113.55;;;34.28;;
51943;SDS011;37969;53.132;6.370;2022-12-11T13:00:33;101.90;;;32.45;;
51943;SDS011;37969;53.132;6.370;2022-12-11T13:03:00;106.97;;;33.95;;
51943;SDS011;37969;53.132;6.370;2022-12-11T13:05:29;108.97;;;33.80;;
51943;SDS011;37969;53.132;6.370;2022-12-11T13:07:58;97.10;;;32.90;;
51943;SDS011;37969;53.132;6.370;2022-12-11T13:10:27;123.07;;;35.47;;
51943;SDS011;37969;53.132;6.370;2022-12-11T13:12:54;101.68;;;33.10;;
51943;SDS011;37969;53.132;6.370;2022-12-11T13:17:48;93.70;;;31.83;;
51943;SDS011;37969;53.132;6.370;2022-12-11T13:20:16;107.55;;;34.08;;
51943;SDS011;37969;53.132;6.370;2022-12-11T13:22:48;100.93;;;34.03;;
51943;SDS011;37969;53.132;6.370;2022-12-11T13:25:18;119.13;;;37.58;;
51943;SDS011;37969;53.132;6.370;2022-12-11T13:27:45;105.40;;;35.53;;
51943;SDS011;37969;53.132;6.370;2022-12-11T13:32:42;115.40;;;36.00;;
51943;SDS011;37969;53.132;6.370;2022-12-11T13:35:13;124.32;;;39.10;;
51943;SDS011;37969;53.132;6.370;2022-12-11T13:37:40;114.55;;;38.05;;
51943;SDS011;37969;53.132;6.370;2022-12-11T13:40:14;113.72;;;37.90;;
51943;SDS011;37969;53.132;6.370;2022-12-11T13:42:46;102.13;;;34.40;;
51943;SDS011;37969;53.132;6.370;2022-12-11T13:45:18;92.85;;;33.72;;
51943;SDS011;37969;53.132;6.370;2022-12-11T13:47:46;93.65;;;34.22;;
51943;SDS011;37969;53.132;6.370;2022-12-11T13:50:22;104.80;;;35.95;;
51943;SDS011;37969;53.132;6.370;2022-12-11T13:52:55;109.80;;;35.83;;
51943;SDS011;37969;53.132;6.370;2022-12-11T13:55:23;91.40;;;33.38;;
51943;SDS011;37969;53.132;6.370;2022-12-11T13:57:50;93.70;;;34.13;;
51943;SDS011;37969;53.132;6.370;2022-12-11T14:00:20;97.35;;;34.67;;
51943;SDS011;37969;53.132;6.370;2022-12-11T14:02:47;96.82;;;33.50;;
51943;SDS011;37969;53.132;6.370;2022-12-11T14:05:14;107.22;;;34.33;;
51943;SDS011;37969;53.132;6.370;2022-12-11T14:10:13;106.35;;;33.67;;
51943;SDS011;37969;53.132;6.370;2022-12-11T14:12:42;96.82;;;34.50;;
51943;SDS011;37969;53.132;6.370;2022-12-11T14:15:10;106.35;;;34.40;;
51943;SDS011;37969;53.132;6.370;2022-12-11T14:17:38;109.22;;;37.35;;
51943;SDS011;37969;53.132;6.370;2022-12-11T14:20:06;102.03;;;36.30;;
51943;SDS011;37969;53.132;6.370;2022-12-11T14:22:41;101.80;;;35.33;;
51943;SDS011;37969;53.132;6.370;2022-12-11T14:25:15;118.32;;;36.85;;
51943;SDS011;37969;53.132;6.370;2022-12-11T14:27:52;96.90;;;34.83;;
51943;SDS011;37969;53.132;6.370;2022-12-11T14:30:19;109.53;;;37.00;;
51943;SDS011;37969;53.132;6.370;2022-12-11T14:32:46;108.53;;;37.25;;
51943;SDS011;37969;53.132;6.370;2022-12-11T14:35:25;110.55;;;36.15;;
51943;SDS011;37969;53.132;6.370;2022-12-11T14:37:52;107.22;;;36.60;;
51943;SDS011;37969;53.132;6.370;2022-12-11T14:40:21;113.53;;;36.50;;
51943;SDS011;37969;53.132;6.370;2022-12-11T14:42:51;90.20;;;33.67;;
51943;SDS011;37969;53.132;6.370;2022-12-11T14:45:23;91.13;;;35.60;;
51943;SDS011;37969;53.132;6.370;2022-12-11T14:47:55;80.63;;;32.15;;
51943;SDS011;37969;53.132;6.370;2022-12-11T14:50:25;77.30;;;30.92;;
51943;SDS011;37969;53.132;6.370;2022-12-11T14:52:52;70.72;;;30.23;;
51943;SDS011;37969;53.132;6.370;2022-12-11T14:57:47;71.00;;;29.70;;
51943;SDS011;37969;53.132;6.370;2022-12-11T15:00:25;68.35;;;29.98;;
51943;SDS011;37969;53.132;6.370;2022-12-11T15:03:00;64.28;;;29.95;;
51943;SDS011;37969;53.132;6.370;2022-12-11T15:05:26;70.07;;;30.15;;
51943;SDS011;37969;53.132;6.370;2022-12-11T15:07:56;74.82;;;30.63;;
51943;SDS011;37969;53.132;6.370;2022-12-11T15:10:23;91.78;;;32.00;;